sensor_id;sensor_type;location;lat;lon;timestamp;temperature;humidity
7234;DHT22;3658;47.992;10.158;2023-03-13T00:00:27;21.40;39.10
7234;DHT22;3658;47.992;10.158;2023-03-13T00:02:54;21.40;39.20
7234;DHT22;3658;47.992;10.158;2023-03-13T00:05:21;21.40;39.00
7234;DHT22;3658;47.992;10.158;2023-03-13T00:07:50;21.40;38.90
7234;DHT22;3658;47.992;10.158;2023-03-13T00:10:17;21.50;38.80
7234;DHT22;3658;47.992;10.158;2023-03-13T00:12:44;21.50;38.60
7234;DHT22;3658;47.992;10.158;2023-03-13T00:15:11;21.50;38.60
7234;DHT22;3658;47.992;10.158;2023-03-13T00:17:37;21.50;38.50
7234;DHT22;3658;47.992;10.158;2023-03-13T00:20:05;21.50;38.40
7234;DHT22;3658;47.992;10.158;2023-03-13T00:22:33;21.50;38.30
7234;DHT22;3658;47.992;10.158;2023-03-13T00:25:02;21.60;38.20
7234;DHT22;3658;47.992;10.158;2023-03-13T00:27:32;21.60;38.10
7234;DHT22;3658;47.992;10.158;2023-03-13T00:29:59;21.60;38.10
7234;DHT22;3658;47.992;10.158;2023-03-13T00:32:26;21.60;38.00
7234;DHT22;3658;47.992;10.158;2023-03-13T00:34:53;21.60;37.90
7234;DHT22;3658;47.992;10.158;2023-03-13T00:37:20;21.60;37.80
7234;DHT22;3658;47.992;10.158;2023-03-13T00:39:47;21.60;37.70
7234;DHT22;3658;47.992;10.158;2023-03-13T00:42:15;21.60;37.70
7234;DHT22;3658;47.992;10.158;2023-03-13T00:44:42;21.60;37.70
7234;DHT22;3658;47.992;10.158;2023-03-13T00:47:09;21.60;37.70
7234;DHT22;3658;47.992;10.158;2023-03-13T00:49:36;21.60;37.50
7234;DHT22;3658;47.992;10.158;2023-03-13T00:52:03;21.60;37.50
7234;DHT22;3658;47.992;10.158;2023-03-13T00:54:30;21.60;37.40
7234;DHT22;3658;47.992;10.158;2023-03-13T00:56:57;21.60;37.30
7234;DHT22;3658;47.992;10.158;2023-03-13T00:59:25;21.60;37.30
7234;DHT22;3658;47.992;10.158;2023-03-13T01:01:52;21.60;37.30
7234;DHT22;3658;47.992;10.158;2023-03-13T01:04:19;21.60;37.30
7234;DHT22;3658;47.992;10.158;2023-03-13T01:06:46;21.60;37.20
7234;DHT22;3658;47.992;10.158;2023-03-13T01:09:14;21.60;37.20
7234;DHT22;3658;47.992;10.158;2023-03-13T01:11:43;21.60;37.20
7234;DHT22;3658;47.992;10.158;2023-03-13T01:14:12;21.60;37.40
7234;DHT22;3658;47.992;10.158;2023-03-13T01:16:41;21.60;37.10
7234;DHT22;3658;47.992;10.158;2023-03-13T01:19:10;21.60;37.10
7234;DHT22;3658;47.992;10.158;2023-03-13T01:21:38;21.60;37.00
7234;DHT22;3658;47.992;10.158;2023-03-13T01:24:05;21.60;37.00
7234;DHT22;3658;47.992;10.158;2023-03-13T01:26:32;21.60;36.90
7234;DHT22;3658;47.992;10.158;2023-03-13T01:28:59;21.60;36.80
7234;DHT22;3658;47.992;10.158;2023-03-13T01:31:28;21.60;36.90
7234;DHT22;3658;47.992;10.158;2023-03-13T01:33:58;21.60;37.40
7234;DHT22;3658;47.992;10.158;2023-03-13T01:36:26;21.60;36.70
7234;DHT22;3658;47.992;10.158;2023-03-13T01:38:55;21.60;36.80
7234;DHT22;3658;47.992;10.158;2023-03-13T01:41:22;21.60;36.70
7234;DHT22;3658;47.992;10.158;2023-03-13T01:43:50;21.60;36.70
7234;DHT22;3658;47.992;10.158;2023-03-13T01:46:18;21.60;36.70
7234;DHT22;3658;47.992;10.158;2023-03-13T01:48:49;21.60;36.70
7234;DHT22;3658;47.992;10.158;2023-03-13T01:51:22;21.60;36.60
7234;DHT22;3658;47.992;10.158;2023-03-13T01:53:54;21.60;36.70
7234;DHT22;3658;47.992;10.158;2023-03-13T01:56:27;21.60;36.70
7234;DHT22;3658;47.992;10.158;2023-03-13T01:58:57;21.60;36.50
7234;DHT22;3658;47.992;10.158;2023-03-13T02:01:25;21.60;36.50
7234;DHT22;3658;47.992;10.158;2023-03-13T02:03:54;21.70;36.50
7234;DHT22;3658;47.992;10.158;2023-03-13T02:06:24;21.60;36.40
7234;DHT22;3658;47.992;10.158;2023-03-13T02:08:55;21.70;36.40
7234;DHT22;3658;47.992;10.158;2023-03-13T02:11:28;21.70;36.40
7234;DHT22;3658;47.992;10.158;2023-03-13T02:13:58;21.60;36.30
7234;DHT22;3658;47.992;10.158;2023-03-13T02:16:26;21.70;36.40
7234;DHT22;3658;47.992;10.158;2023-03-13T02:18:54;21.70;36.30
7234;DHT22;3658;47.992;10.158;2023-03-13T02:21:33;21.70;36.30
7234;DHT22;3658;47.992;10.158;2023-03-13T02:24:08;21.70;36.30
7234;DHT22;3658;47.992;10.158;2023-03-13T02:26:40;21.70;36.30
7234;DHT22;3658;47.992;10.158;2023-03-13T02:29:08;21.60;36.20
7234;DHT22;3658;47.992;10.158;2023-03-13T02:31:43;21.70;36.30
7234;DHT22;3658;47.992;10.158;2023-03-13T02:34:11;21.70;36.20
7234;DHT22;3658;47.992;10.158;2023-03-13T02:36:40;21.70;36.30
7234;DHT22;3658;47.992;10.158;2023-03-13T02:39:08;21.70;36.30
7234;DHT22;3658;47.992;10.158;2023-03-13T02:41:37;21.70;36.20
7234;DHT22;3658;47.992;10.158;2023-03-13T02:44:07;21.70;36.20
7234;DHT22;3658;47.992;10.158;2023-03-13T02:46:43;21.70;36.10
7234;DHT22;3658;47.992;10.158;2023-03-13T02:49:23;21.70;36.10
7234;DHT22;3658;47.992;10.158;2023-03-13T02:51:52;21.70;36.70
7234;DHT22;3658;47.992;10.158;2023-03-13T02:54:21;21.70;36.10
7234;DHT22;3658;47.992;10.158;2023-03-13T02:56:52;21.70;36.10
7234;DHT22;3658;47.992;10.158;2023-03-13T02:59:22;21.70;36.00
7234;DHT22;3658;47.992;10.158;2023-03-13T03:01:49;21.70;36.00
7234;DHT22;3658;47.992;10.158;2023-03-13T03:04:18;21.70;36.00
7234;DHT22;3658;47.992;10.158;2023-03-13T03:06:45;21.70;36.00
7234;DHT22;3658;47.992;10.158;2023-03-13T03:09:12;21.70;36.00
7234;DHT22;3658;47.992;10.158;2023-03-13T03:11:39;21.70;35.90
7234;DHT22;3658;47.992;10.158;2023-03-13T03:14:09;21.70;35.90
7234;DHT22;3658;47.992;10.158;2023-03-13T03:16:38;21.70;35.90
7234;DHT22;3658;47.992;10.158;2023-03-13T03:19:05;21.70;35.90
7234;DHT22;3658;47.992;10.158;2023-03-13T03:21:33;21.70;35.90
7234;DHT22;3658;47.992;10.158;2023-03-13T03:24:00;21.70;35.90
7234;DHT22;3658;47.992;10.158;2023-03-13T03:26:27;21.70;35.80
7234;DHT22;3658;47.992;10.158;2023-03-13T03:28:54;21.70;35.80
7234;DHT22;3658;47.992;10.158;2023-03-13T03:31:21;21.70;35.70
7234;DHT22;3658;47.992;10.158;2023-03-13T03:33:50;21.70;35.70
7234;DHT22;3658;47.992;10.158;2023-03-13T03:36:18;21.70;35.70
7234;DHT22;3658;47.992;10.158;2023-03-13T03:38:46;21.70;35.70
7234;DHT22;3658;47.992;10.158;2023-03-13T03:41:14;21.70;35.70
7234;DHT22;3658;47.992;10.158;2023-03-13T03:43:41;21.70;35.70
7234;DHT22;3658;47.992;10.158;2023-03-13T03:46:08;21.70;35.70
7234;DHT22;3658;47.992;10.158;2023-03-13T03:48:35;21.70;35.70
7234;DHT22;3658;47.992;10.158;2023-03-13T03:51:04;21.70;35.70
7234;DHT22;3658;47.992;10.158;2023-03-13T03:53:31;21.70;35.60
7234;DHT22;3658;47.992;10.158;2023-03-13T03:55:58;21.70;35.60
7234;DHT22;3658;47.992;10.158;2023-03-13T03:58:25;21.70;35.60
7234;DHT22;3658;47.992;10.158;2023-03-13T04:00:53;21.70;35.60
7234;DHT22;3658;47.992;10.158;2023-03-13T04:03:21;21.70;35.60
7234;DHT22;3658;47.992;10.158;2023-03-13T04:05:48;21.70;35.50
7234;DHT22;3658;47.992;10.158;2023-03-13T04:08:17;21.70;35.50
7234;DHT22;3658;47.992;10.158;2023-03-13T04:10:44;21.70;35.50
7234;DHT22;3658;47.992;10.158;2023-03-13T04:13:11;21.70;35.50
7234;DHT22;3658;47.992;10.158;2023-03-13T04:15:38;21.70;35.40
7234;DHT22;3658;47.992;10.158;2023-03-13T04:18:05;21.70;35.40
7234;DHT22;3658;47.992;10.158;2023-03-13T04:20:32;21.70;35.40
7234;DHT22;3658;47.992;10.158;2023-03-13T04:22:59;21.70;35.50
7234;DHT22;3658;47.992;10.158;2023-03-13T04:25:28;21.70;35.40
7234;DHT22;3658;47.992;10.158;2023-03-13T04:27:55;21.70;35.40
7234;DHT22;3658;47.992;10.158;2023-03-13T04:30:22;21.70;35.40
7234;DHT22;3658;47.992;10.158;2023-03-13T04:32:49;21.70;35.40
7234;DHT22;3658;47.992;10.158;2023-03-13T04:35:16;21.70;35.40
7234;DHT22;3658;47.992;10.158;2023-03-13T04:37:43;21.70;35.30
7234;DHT22;3658;47.992;10.158;2023-03-13T04:40:11;21.70;35.30
7234;DHT22;3658;47.992;10.158;2023-03-13T04:42:40;21.70;35.30
7234;DHT22;3658;47.992;10.158;2023-03-13T04:45:10;21.70;35.20
7234;DHT22;3658;47.992;10.158;2023-03-13T04:47:37;21.70;35.20
7234;DHT22;3658;47.992;10.158;2023-03-13T04:50:05;21.70;35.20
7234;DHT22;3658;47.992;10.158;2023-03-13T04:52:32;21.70;35.20
7234;DHT22;3658;47.992;10.158;2023-03-13T04:54:59;21.70;35.10
7234;DHT22;3658;47.992;10.158;2023-03-13T04:57:26;21.80;35.20
7234;DHT22;3658;47.992;10.158;2023-03-13T04:59:54;21.80;35.20
7234;DHT22;3658;47.992;10.158;2023-03-13T05:02:21;21.80;35.20
7234;DHT22;3658;47.992;10.158;2023-03-13T05:04:48;21.80;35.20
7234;DHT22;3658;47.992;10.158;2023-03-13T05:07:15;21.80;35.20
7234;DHT22;3658;47.992;10.158;2023-03-13T05:09:42;21.70;35.20
7234;DHT22;3658;47.992;10.158;2023-03-13T05:12:09;21.80;35.20
7234;DHT22;3658;47.992;10.158;2023-03-13T05:14:36;21.70;35.00
7234;DHT22;3658;47.992;10.158;2023-03-13T05:17:04;21.70;35.10
7234;DHT22;3658;47.992;10.158;2023-03-13T05:19:31;21.70;35.00
7234;DHT22;3658;47.992;10.158;2023-03-13T05:21:58;21.80;35.10
7234;DHT22;3658;47.992;10.158;2023-03-13T05:24:25;21.80;35.00
7234;DHT22;3658;47.992;10.158;2023-03-13T05:26:52;21.70;35.00
7234;DHT22;3658;47.992;10.158;2023-03-13T05:29:19;21.80;35.00
7234;DHT22;3658;47.992;10.158;2023-03-13T05:31:46;21.80;35.00
7234;DHT22;3658;47.992;10.158;2023-03-13T05:34:14;21.80;35.00
7234;DHT22;3658;47.992;10.158;2023-03-13T05:36:41;21.70;34.90
7234;DHT22;3658;47.992;10.158;2023-03-13T05:39:08;21.80;35.00
7234;DHT22;3658;47.992;10.158;2023-03-13T05:41:34;21.80;34.90
7234;DHT22;3658;47.992;10.158;2023-03-13T05:44:01;21.80;34.90
7234;DHT22;3658;47.992;10.158;2023-03-13T05:46:28;21.70;34.90
7234;DHT22;3658;47.992;10.158;2023-03-13T05:48:55;21.70;34.90
7234;DHT22;3658;47.992;10.158;2023-03-13T05:51:24;21.80;34.90
7234;DHT22;3658;47.992;10.158;2023-03-13T05:53:51;21.80;34.90
7234;DHT22;3658;47.992;10.158;2023-03-13T05:56:17;21.80;34.90
7234;DHT22;3658;47.992;10.158;2023-03-13T05:58:44;21.80;34.90
7234;DHT22;3658;47.992;10.158;2023-03-13T06:01:13;21.80;34.90
7234;DHT22;3658;47.992;10.158;2023-03-13T06:03:40;21.80;34.90
7234;DHT22;3658;47.992;10.158;2023-03-13T06:06:07;21.80;34.80
7234;DHT22;3658;47.992;10.158;2023-03-13T06:08:35;21.80;34.80
7234;DHT22;3658;47.992;10.158;2023-03-13T06:11:02;21.80;34.80
7234;DHT22;3658;47.992;10.158;2023-03-13T06:13:29;21.80;34.80
7234;DHT22;3658;47.992;10.158;2023-03-13T06:15:57;21.80;34.80
7234;DHT22;3658;47.992;10.158;2023-03-13T06:18:24;21.80;34.70
7234;DHT22;3658;47.992;10.158;2023-03-13T06:20:56;21.80;34.80
7234;DHT22;3658;47.992;10.158;2023-03-13T06:23:23;21.80;34.70
7234;DHT22;3658;47.992;10.158;2023-03-13T06:25:51;21.80;34.70
7234;DHT22;3658;47.992;10.158;2023-03-13T06:28:18;21.80;34.80
7234;DHT22;3658;47.992;10.158;2023-03-13T06:30:46;21.80;34.70
7234;DHT22;3658;47.992;10.158;2023-03-13T06:33:13;21.80;34.70
7234;DHT22;3658;47.992;10.158;2023-03-13T06:35:40;21.80;34.60
7234;DHT22;3658;47.992;10.158;2023-03-13T06:38:07;21.80;34.60
7234;DHT22;3658;47.992;10.158;2023-03-13T06:40:35;21.80;34.60
7234;DHT22;3658;47.992;10.158;2023-03-13T06:43:03;21.80;34.60
7234;DHT22;3658;47.992;10.158;2023-03-13T06:45:30;21.80;34.50
7234;DHT22;3658;47.992;10.158;2023-03-13T06:47:57;21.80;34.60
7234;DHT22;3658;47.992;10.158;2023-03-13T06:50:24;21.80;34.60
7234;DHT22;3658;47.992;10.158;2023-03-13T06:52:52;21.80;34.60
7234;DHT22;3658;47.992;10.158;2023-03-13T06:55:19;21.80;35.00
7234;DHT22;3658;47.992;10.158;2023-03-13T06:57:49;21.80;35.30
7234;DHT22;3658;47.992;10.158;2023-03-13T07:00:19;21.80;35.70
7234;DHT22;3658;47.992;10.158;2023-03-13T07:02:46;21.80;35.90
7234;DHT22;3658;47.992;10.158;2023-03-13T07:05:13;21.70;36.10
7234;DHT22;3658;47.992;10.158;2023-03-13T07:07:40;21.70;36.30
7234;DHT22;3658;47.992;10.158;2023-03-13T07:10:09;21.70;36.40
7234;DHT22;3658;47.992;10.158;2023-03-13T07:12:36;21.70;36.40
7234;DHT22;3658;47.992;10.158;2023-03-13T07:15:04;21.70;36.50
7234;DHT22;3658;47.992;10.158;2023-03-13T07:17:32;21.70;36.60
7234;DHT22;3658;47.992;10.158;2023-03-13T07:19:59;21.70;36.60
7234;DHT22;3658;47.992;10.158;2023-03-13T07:22:27;21.70;36.70
7234;DHT22;3658;47.992;10.158;2023-03-13T07:24:53;21.70;36.70
7234;DHT22;3658;47.992;10.158;2023-03-13T07:27:20;21.70;36.60
7234;DHT22;3658;47.992;10.158;2023-03-13T07:29:47;21.70;36.60
7234;DHT22;3658;47.992;10.158;2023-03-13T07:32:14;21.70;36.60
7234;DHT22;3658;47.992;10.158;2023-03-13T07:34:43;21.70;36.90
7234;DHT22;3658;47.992;10.158;2023-03-13T07:37:11;21.80;37.30
7234;DHT22;3658;47.992;10.158;2023-03-13T07:39:38;21.80;37.20
7234;DHT22;3658;47.992;10.158;2023-03-13T07:42:06;21.80;37.20
7234;DHT22;3658;47.992;10.158;2023-03-13T07:44:33;21.80;37.20
7234;DHT22;3658;47.992;10.158;2023-03-13T07:47:00;21.80;37.10
7234;DHT22;3658;47.992;10.158;2023-03-13T07:49:27;21.90;37.20
7234;DHT22;3658;47.992;10.158;2023-03-13T07:51:55;21.90;37.20
7234;DHT22;3658;47.992;10.158;2023-03-13T07:54:22;21.90;37.10
7234;DHT22;3658;47.992;10.158;2023-03-13T07:56:49;21.90;37.20
7234;DHT22;3658;47.992;10.158;2023-03-13T07:59:16;21.90;37.10
7234;DHT22;3658;47.992;10.158;2023-03-13T08:01:43;21.90;37.10
7234;DHT22;3658;47.992;10.158;2023-03-13T08:04:12;21.90;37.10
7234;DHT22;3658;47.992;10.158;2023-03-13T08:06:39;22.00;37.10
7234;DHT22;3658;47.992;10.158;2023-03-13T08:09:09;22.00;37.20
7234;DHT22;3658;47.992;10.158;2023-03-13T08:11:37;22.00;37.20
7234;DHT22;3658;47.992;10.158;2023-03-13T08:14:05;22.00;37.30
7234;DHT22;3658;47.992;10.158;2023-03-13T08:16:33;22.00;37.30
7234;DHT22;3658;47.992;10.158;2023-03-13T08:19:01;22.00;37.30
7234;DHT22;3658;47.992;10.158;2023-03-13T08:21:31;22.00;37.20
7234;DHT22;3658;47.992;10.158;2023-03-13T08:24:00;22.00;37.20
7234;DHT22;3658;47.992;10.158;2023-03-13T08:26:30;22.00;37.30
7234;DHT22;3658;47.992;10.158;2023-03-13T08:28:58;22.00;37.20
7234;DHT22;3658;47.992;10.158;2023-03-13T08:31:27;22.00;37.20
7234;DHT22;3658;47.992;10.158;2023-03-13T08:33:55;22.00;37.20
7234;DHT22;3658;47.992;10.158;2023-03-13T08:36:24;22.10;37.20
7234;DHT22;3658;47.992;10.158;2023-03-13T08:38:53;22.00;37.10
7234;DHT22;3658;47.992;10.158;2023-03-13T08:41:22;22.10;37.10
7234;DHT22;3658;47.992;10.158;2023-03-13T08:43:51;22.10;37.10
7234;DHT22;3658;47.992;10.158;2023-03-13T08:46:18;22.10;37.20
7234;DHT22;3658;47.992;10.158;2023-03-13T08:48:48;22.10;37.20
7234;DHT22;3658;47.992;10.158;2023-03-13T08:51:17;22.10;37.20
7234;DHT22;3658;47.992;10.158;2023-03-13T08:53:44;22.10;37.50
7234;DHT22;3658;47.992;10.158;2023-03-13T08:56:12;22.10;37.40
7234;DHT22;3658;47.992;10.158;2023-03-13T08:58:40;22.10;37.30
7234;DHT22;3658;47.992;10.158;2023-03-13T09:01:10;22.10;37.20
7234;DHT22;3658;47.992;10.158;2023-03-13T09:03:38;22.00;37.10
7234;DHT22;3658;47.992;10.158;2023-03-13T09:06:06;22.00;37.20
7234;DHT22;3658;47.992;10.158;2023-03-13T09:08:34;22.10;37.20
7234;DHT22;3658;47.992;10.158;2023-03-13T09:11:03;22.00;37.10
7234;DHT22;3658;47.992;10.158;2023-03-13T09:13:32;22.00;37.20
7234;DHT22;3658;47.992;10.158;2023-03-13T09:16:01;22.00;37.10
7234;DHT22;3658;47.992;10.158;2023-03-13T09:18:30;22.00;37.20
7234;DHT22;3658;47.992;10.158;2023-03-13T09:20:57;21.90;37.00
7234;DHT22;3658;47.992;10.158;2023-03-13T09:23:24;21.90;37.00
7234;DHT22;3658;47.992;10.158;2023-03-13T09:25:52;21.90;37.00
7234;DHT22;3658;47.992;10.158;2023-03-13T09:28:20;21.90;37.10
7234;DHT22;3658;47.992;10.158;2023-03-13T09:30:47;21.90;37.20
7234;DHT22;3658;47.992;10.158;2023-03-13T09:33:15;21.90;37.30
7234;DHT22;3658;47.992;10.158;2023-03-13T09:35:46;21.90;37.40
7234;DHT22;3658;47.992;10.158;2023-03-13T09:38:16;21.90;37.70
7234;DHT22;3658;47.992;10.158;2023-03-13T09:40:45;21.90;37.80
7234;DHT22;3658;47.992;10.158;2023-03-13T09:43:21;21.90;37.90
7234;DHT22;3658;47.992;10.158;2023-03-13T09:45:52;21.90;37.90
7234;DHT22;3658;47.992;10.158;2023-03-13T09:48:28;21.90;37.90
7234;DHT22;3658;47.992;10.158;2023-03-13T09:51:01;21.90;37.90
7234;DHT22;3658;47.992;10.158;2023-03-13T09:53:35;21.90;37.90
7234;DHT22;3658;47.992;10.158;2023-03-13T09:56:07;21.90;37.90
7234;DHT22;3658;47.992;10.158;2023-03-13T09:58:46;21.90;38.10
7234;DHT22;3658;47.992;10.158;2023-03-13T10:01:16;21.90;38.00
7234;DHT22;3658;47.992;10.158;2023-03-13T10:06:43;21.90;38.10
7234;DHT22;3658;47.992;10.158;2023-03-13T10:09:16;21.90;38.10
7234;DHT22;3658;47.992;10.158;2023-03-13T10:11:52;21.90;38.00
7234;DHT22;3658;47.992;10.158;2023-03-13T10:14:28;21.90;38.00
7234;DHT22;3658;47.992;10.158;2023-03-13T10:17:00;21.90;37.90
7234;DHT22;3658;47.992;10.158;2023-03-13T10:19:34;21.90;38.20
7234;DHT22;3658;47.992;10.158;2023-03-13T10:22:11;21.90;38.80
7234;DHT22;3658;47.992;10.158;2023-03-13T10:24:44;21.90;37.90
7234;DHT22;3658;47.992;10.158;2023-03-13T10:27:13;21.90;38.20
7234;DHT22;3658;47.992;10.158;2023-03-13T10:29:41;21.90;38.50
7234;DHT22;3658;47.992;10.158;2023-03-13T10:32:11;21.90;38.80
7234;DHT22;3658;47.992;10.158;2023-03-13T10:34:54;21.90;38.90
7234;DHT22;3658;47.992;10.158;2023-03-13T10:37:25;21.90;38.70
7234;DHT22;3658;47.992;10.158;2023-03-13T10:39:52;21.90;38.70
7234;DHT22;3658;47.992;10.158;2023-03-13T10:42:25;21.90;38.80
7234;DHT22;3658;47.992;10.158;2023-03-13T10:44:57;21.90;39.00
7234;DHT22;3658;47.992;10.158;2023-03-13T10:47:25;21.90;39.10
7234;DHT22;3658;47.992;10.158;2023-03-13T10:49:55;21.90;39.10
7234;DHT22;3658;47.992;10.158;2023-03-13T10:52:42;21.90;39.00
7234;DHT22;3658;47.992;10.158;2023-03-13T10:55:11;21.90;39.00
7234;DHT22;3658;47.992;10.158;2023-03-13T10:57:41;21.90;38.50
7234;DHT22;3658;47.992;10.158;2023-03-13T11:00:27;21.90;38.50
7234;DHT22;3658;47.992;10.158;2023-03-13T11:02:55;21.90;38.80
7234;DHT22;3658;47.992;10.158;2023-03-13T11:05:37;21.90;38.80
7234;DHT22;3658;47.992;10.158;2023-03-13T11:08:18;21.90;38.10
7234;DHT22;3658;47.992;10.158;2023-03-13T11:10:58;21.80;37.40
7234;DHT22;3658;47.992;10.158;2023-03-13T11:13:38;21.80;37.10
7234;DHT22;3658;47.992;10.158;2023-03-13T11:16:17;21.80;36.70
7234;DHT22;3658;47.992;10.158;2023-03-13T11:21:43;21.80;36.50
7234;DHT22;3658;47.992;10.158;2023-03-13T11:24:19;21.80;36.40
7234;DHT22;3658;47.992;10.158;2023-03-13T11:26:55;21.80;36.50
7234;DHT22;3658;47.992;10.158;2023-03-13T11:29:30;21.80;36.70
7234;DHT22;3658;47.992;10.158;2023-03-13T11:32:04;21.80;36.60
7234;DHT22;3658;47.992;10.158;2023-03-13T11:34:41;21.80;36.70
7234;DHT22;3658;47.992;10.158;2023-03-13T11:37:11;21.80;36.70
7234;DHT22;3658;47.992;10.158;2023-03-13T11:39:49;21.80;36.70
7234;DHT22;3658;47.992;10.158;2023-03-13T11:42:34;21.80;36.60
7234;DHT22;3658;47.992;10.158;2023-03-13T11:45:09;21.80;36.70
7234;DHT22;3658;47.992;10.158;2023-03-13T11:47:48;21.80;36.70
7234;DHT22;3658;47.992;10.158;2023-03-13T11:50:33;21.80;36.70
7234;DHT22;3658;47.992;10.158;2023-03-13T11:53:21;21.80;42.70
7234;DHT22;3658;47.992;10.158;2023-03-13T11:56:00;21.90;41.30
7234;DHT22;3658;47.992;10.158;2023-03-13T11:58:40;21.90;40.60
7234;DHT22;3658;47.992;10.158;2023-03-13T12:01:15;21.90;40.40
7234;DHT22;3658;47.992;10.158;2023-03-13T12:03:54;22.00;40.10
7234;DHT22;3658;47.992;10.158;2023-03-13T12:06:25;22.00;39.80
7234;DHT22;3658;47.992;10.158;2023-03-13T12:08:59;21.90;39.50
7234;DHT22;3658;47.992;10.158;2023-03-13T12:11:32;21.90;39.50
7234;DHT22;3658;47.992;10.158;2023-03-13T12:14:05;21.90;39.60
7234;DHT22;3658;47.992;10.158;2023-03-13T12:16:40;22.00;40.40
7234;DHT22;3658;47.992;10.158;2023-03-13T12:19:11;22.00;40.80
7234;DHT22;3658;47.992;10.158;2023-03-13T12:21:46;21.90;40.70
7234;DHT22;3658;47.992;10.158;2023-03-13T12:24:22;21.90;41.00
7234;DHT22;3658;47.992;10.158;2023-03-13T12:26:55;21.90;41.20
7234;DHT22;3658;47.992;10.158;2023-03-13T12:29:35;21.90;41.00
7234;DHT22;3658;47.992;10.158;2023-03-13T12:32:11;21.90;40.40
7234;DHT22;3658;47.992;10.158;2023-03-13T12:34:50;21.80;39.30
7234;DHT22;3658;47.992;10.158;2023-03-13T12:37:22;21.80;39.90
7234;DHT22;3658;47.992;10.158;2023-03-13T12:39:55;21.80;40.30
7234;DHT22;3658;47.992;10.158;2023-03-13T12:42:41;21.80;40.70
7234;DHT22;3658;47.992;10.158;2023-03-13T12:45:16;21.90;40.60
7234;DHT22;3658;47.992;10.158;2023-03-13T12:48:15;21.90;40.60
7234;DHT22;3658;47.992;10.158;2023-03-13T12:53:43;21.90;40.80
7234;DHT22;3658;47.992;10.158;2023-03-13T12:56:44;21.90;40.60
7234;DHT22;3658;47.992;10.158;2023-03-13T12:59:18;21.90;40.50
7234;DHT22;3658;47.992;10.158;2023-03-13T13:01:49;21.90;40.60
7234;DHT22;3658;47.992;10.158;2023-03-13T13:04:18;21.90;40.60
7234;DHT22;3658;47.992;10.158;2023-03-13T13:06:55;21.90;40.60
7234;DHT22;3658;47.992;10.158;2023-03-13T13:09:25;21.90;40.60
7234;DHT22;3658;47.992;10.158;2023-03-13T13:11:54;21.90;40.50
7234;DHT22;3658;47.992;10.158;2023-03-13T13:17:34;21.90;40.70
7234;DHT22;3658;47.992;10.158;2023-03-13T13:20:33;21.90;40.50
7234;DHT22;3658;47.992;10.158;2023-03-13T13:23:28;21.90;40.40
7234;DHT22;3658;47.992;10.158;2023-03-13T13:32:38;21.90;40.60
7234;DHT22;3658;47.992;10.158;2023-03-13T13:35:28;21.90;41.10
7234;DHT22;3658;47.992;10.158;2023-03-13T13:38:25;21.90;41.40
7234;DHT22;3658;47.992;10.158;2023-03-13T13:40:58;21.90;41.50
7234;DHT22;3658;47.992;10.158;2023-03-13T13:43:29;21.90;41.40
7234;DHT22;3658;47.992;10.158;2023-03-13T13:46:00;21.90;41.20
7234;DHT22;3658;47.992;10.158;2023-03-13T13:48:31;21.90;41.00
7234;DHT22;3658;47.992;10.158;2023-03-13T13:51:30;21.90;40.90
7234;DHT22;3658;47.992;10.158;2023-03-13T13:53:58;21.90;40.70
7234;DHT22;3658;47.992;10.158;2023-03-13T13:56:35;21.90;40.60
7234;DHT22;3658;47.992;10.158;2023-03-13T13:59:15;21.90;40.60
7234;DHT22;3658;47.992;10.158;2023-03-13T14:01:47;21.80;40.10
7234;DHT22;3658;47.992;10.158;2023-03-13T14:04:22;21.80;40.70
7234;DHT22;3658;47.992;10.158;2023-03-13T14:06:53;21.90;40.90
7234;DHT22;3658;47.992;10.158;2023-03-13T14:09:30;21.80;40.80
7234;DHT22;3658;47.992;10.158;2023-03-13T14:11:59;21.90;40.50
7234;DHT22;3658;47.992;10.158;2023-03-13T14:14:26;21.80;40.10
7234;DHT22;3658;47.992;10.158;2023-03-13T14:16:55;21.80;39.80
7234;DHT22;3658;47.992;10.158;2023-03-13T14:19:28;21.80;39.70
7234;DHT22;3658;47.992;10.158;2023-03-13T14:22:00;21.70;39.50
7234;DHT22;3658;47.992;10.158;2023-03-13T14:24:27;21.80;40.40
7234;DHT22;3658;47.992;10.158;2023-03-13T14:26:54;21.80;40.80
7234;DHT22;3658;47.992;10.158;2023-03-13T14:29:21;21.80;41.00
7234;DHT22;3658;47.992;10.158;2023-03-13T14:31:52;21.80;41.10
7234;DHT22;3658;47.992;10.158;2023-03-13T14:34:20;21.80;41.40
7234;DHT22;3658;47.992;10.158;2023-03-13T14:36:50;21.80;41.50
7234;DHT22;3658;47.992;10.158;2023-03-13T14:39:19;21.80;41.40
7234;DHT22;3658;47.992;10.158;2023-03-13T14:41:48;21.80;41.60
7234;DHT22;3658;47.992;10.158;2023-03-13T14:44:21;21.80;41.90
7234;DHT22;3658;47.992;10.158;2023-03-13T14:46:52;21.80;42.10
7234;DHT22;3658;47.992;10.158;2023-03-13T14:49:21;21.80;42.10
7234;DHT22;3658;47.992;10.158;2023-03-13T14:51:58;21.80;42.10
7234;DHT22;3658;47.992;10.158;2023-03-13T14:54:28;21.80;41.40
7234;DHT22;3658;47.992;10.158;2023-03-13T14:57:05;21.80;40.80
7234;DHT22;3658;47.992;10.158;2023-03-13T14:59:38;21.80;40.50
7234;DHT22;3658;47.992;10.158;2023-03-13T15:02:14;21.90;40.30
7234;DHT22;3658;47.992;10.158;2023-03-13T15:04:50;21.90;40.30
7234;DHT22;3658;47.992;10.158;2023-03-13T15:07:19;21.90;40.10
7234;DHT22;3658;47.992;10.158;2023-03-13T15:09:48;21.90;40.10
7234;DHT22;3658;47.992;10.158;2023-03-13T15:12:17;21.90;39.90
7234;DHT22;3658;47.992;10.158;2023-03-13T15:14:45;21.90;40.50
7234;DHT22;3658;47.992;10.158;2023-03-13T15:17:16;22.00;40.10
7234;DHT22;3658;47.992;10.158;2023-03-13T15:19:47;22.00;40.80
7234;DHT22;3658;47.992;10.158;2023-03-13T15:22:15;22.00;40.10
7234;DHT22;3658;47.992;10.158;2023-03-13T15:24:44;21.90;39.90
7234;DHT22;3658;47.992;10.158;2023-03-13T15:27:16;22.00;39.80
7234;DHT22;3658;47.992;10.158;2023-03-13T15:29:43;21.90;39.60
7234;DHT22;3658;47.992;10.158;2023-03-13T15:32:21;22.00;39.80
7234;DHT22;3658;47.992;10.158;2023-03-13T15:34:49;21.90;39.70
7234;DHT22;3658;47.992;10.158;2023-03-13T15:37:16;22.00;39.80
7234;DHT22;3658;47.992;10.158;2023-03-13T15:39:45;21.90;39.60
7234;DHT22;3658;47.992;10.158;2023-03-13T15:42:12;21.90;39.60
7234;DHT22;3658;47.992;10.158;2023-03-13T15:44:39;21.90;39.60
7234;DHT22;3658;47.992;10.158;2023-03-13T15:47:09;21.90;39.60
7234;DHT22;3658;47.992;10.158;2023-03-13T15:49:36;21.90;39.60
7234;DHT22;3658;47.992;10.158;2023-03-13T15:52:08;21.90;39.60
7234;DHT22;3658;47.992;10.158;2023-03-13T15:54:36;21.90;39.60
7234;DHT22;3658;47.992;10.158;2023-03-13T15:57:05;21.90;39.70
7234;DHT22;3658;47.992;10.158;2023-03-13T15:59:33;21.90;39.60
7234;DHT22;3658;47.992;10.158;2023-03-13T16:02:00;21.90;39.70
7234;DHT22;3658;47.992;10.158;2023-03-13T16:04:27;21.90;39.70
7234;DHT22;3658;47.992;10.158;2023-03-13T16:06:56;21.90;39.60
7234;DHT22;3658;47.992;10.158;2023-03-13T16:09:24;21.90;39.60
7234;DHT22;3658;47.992;10.158;2023-03-13T16:11:51;22.00;39.70
7234;DHT22;3658;47.992;10.158;2023-03-13T16:14:25;21.90;39.50
7234;DHT22;3658;47.992;10.158;2023-03-13T16:16:59;21.90;39.60
7234;DHT22;3658;47.992;10.158;2023-03-13T16:19:26;21.90;39.50
7234;DHT22;3658;47.992;10.158;2023-03-13T16:21:53;21.90;39.50